AAL1506 MYNN-KMIA
Flight info
| Callsign | AAL1506 |
|---|---|
| Flight time | 0h 37m |
| Altitude | 32000 |
| Route | PEACH DCT REPEE BNFSH3 |
| Aircraft | B38M/M-SDE1FGHILORVWXY/HB1 |
Departure
| Time | 2026-05-07 15:49 |
|---|---|
| Airport | Lynden Pindling International Airport (MYNN) |
Arrival
| Time | 2026-05-07 16:26 |
|---|---|
| Airport | Miami International Airport (KMIA) |
| Time | Latitude | Longitude | Altitude | Speed | Heading |
|---|---|---|---|---|---|
| 2026-05-07 15:31 | 25.04903 | -77.46779 | 16 ft | 0 kts | 133° |
| 2026-05-07 15:37 | 25.04907 | -77.46783 | 15 ft | 2 kts | 133° |
| 2026-05-07 15:37 | 25.04918 | -77.46795 | 15 ft | 2 kts | 136° |
| 2026-05-07 15:37 | 25.04930 | -77.46808 | 15 ft | 2 kts | 141° |
| 2026-05-07 15:37 | 25.04944 | -77.46818 | 15 ft | 2 kts | 155° |
| 2026-05-07 15:38 | 25.04959 | -77.46819 | 17 ft | 2 kts | 220° |
| 2026-05-07 15:38 | 25.04966 | -77.46811 | 15 ft | 1 kts | 242° |
| 2026-05-07 15:38 | 25.04966 | -77.46810 | 15 ft | 0 kts | 242° |
| 2026-05-07 15:40 | 25.04962 | -77.46818 | 15 ft | 3 kts | 242° |
| 2026-05-07 15:40 | 25.04948 | -77.46849 | 15 ft | 7 kts | 243° |
| 2026-05-07 15:41 | 25.04919 | -77.46909 | 15 ft | 10 kts | 243° |
| 2026-05-07 15:41 | 25.04860 | -77.46939 | 15 ft | 12 kts | 153° |
| 2026-05-07 15:41 | 25.04787 | -77.46861 | 16 ft | 17 kts | 134° |
| 2026-05-07 15:41 | 25.04691 | -77.46750 | 16 ft | 23 kts | 133° |
| 2026-05-07 15:42 | 25.04568 | -77.46617 | 14 ft | 26 kts | 134° |
| 2026-05-07 15:42 | 25.04436 | -77.46467 | 14 ft | 28 kts | 134° |
| 2026-05-07 15:42 | 25.04288 | -77.46317 | 14 ft | 30 kts | 136° |
| 2026-05-07 15:42 | 25.04166 | -77.46173 | 14 ft | 25 kts | 131° |
| 2026-05-07 15:43 | 25.04036 | -77.46031 | 15 ft | 27 kts | 135° |
| 2026-05-07 15:43 | 25.03899 | -77.45883 | 15 ft | 29 kts | 135° |
| 2026-05-07 15:43 | 25.03760 | -77.45717 | 15 ft | 30 kts | 134° |
| 2026-05-07 15:43 | 25.03609 | -77.45550 | 15 ft | 32 kts | 134° |
| 2026-05-07 15:44 | 25.03458 | -77.45382 | 13 ft | 31 kts | 135° |
| 2026-05-07 15:44 | 25.03313 | -77.45220 | 14 ft | 20 kts | 134° |
| 2026-05-07 15:44 | 25.03211 | -77.45173 | 13 ft | 0 kts | 191° |
| 2026-05-07 15:46 | 25.03206 | -77.45174 | 15 ft | 2 kts | 191° |
| 2026-05-07 15:47 | 25.03187 | -77.45178 | 15 ft | 4 kts | 191° |
| 2026-05-07 15:47 | 25.03153 | -77.45186 | 13 ft | 6 kts | 191° |
| 2026-05-07 15:47 | 25.03109 | -77.45200 | 14 ft | 2 kts | 213° |
| 2026-05-07 15:47 | 25.03095 | -77.45219 | 15 ft | 4 kts | 242° |
| 2026-05-07 15:48 | 25.03102 | -77.45257 | 15 ft | 6 kts | 313° |
| 2026-05-07 15:48 | 25.03240 | -77.45411 | 12 ft | 70 kts | 315° |
| 2026-05-07 15:48 | 25.03794 | -77.46030 | 17 ft | 153 kts | 314° |
| 2026-05-07 15:48 | 25.04681 | -77.47002 | 388 ft | 198 kts | 316° |
| 2026-05-07 15:49 | 25.05728 | -77.48126 | 1307 ft | 221 kts | 317° |
| 2026-05-07 15:49 | 25.06864 | -77.49371 | 2341 ft | 236 kts | 314° |
| 2026-05-07 15:49 | 25.08049 | -77.50718 | 3125 ft | 253 kts | 315° |
| 2026-05-07 15:49 | 25.09379 | -77.52090 | 3908 ft | 267 kts | 324° |
| 2026-05-07 15:50 | 25.10914 | -77.53257 | 4923 ft | 271 kts | 326° |
| 2026-05-07 15:50 | 25.12487 | -77.54453 | 5899 ft | 277 kts | 326° |
| 2026-05-07 15:50 | 25.14086 | -77.55672 | 6870 ft | 282 kts | 326° |
| 2026-05-07 15:50 | 25.15709 | -77.56912 | 7791 ft | 286 kts | 325° |
| 2026-05-07 15:51 | 25.17271 | -77.58295 | 8679 ft | 291 kts | 309° |
| 2026-05-07 15:51 | 25.18203 | -77.60258 | 9584 ft | 292 kts | 287° |
| 2026-05-07 15:51 | 25.18802 | -77.62397 | 10356 ft | 300 kts | 288° |
| 2026-05-07 15:51 | 25.19474 | -77.64650 | 10826 ft | 319 kts | 288° |
| 2026-05-07 15:52 | 25.20202 | -77.67038 | 11247 ft | 337 kts | 289° |
| 2026-05-07 15:52 | 25.20967 | -77.69529 | 11777 ft | 349 kts | 289° |
| 2026-05-07 15:52 | 25.21759 | -77.72103 | 12383 ft | 357 kts | 289° |
| 2026-05-07 15:52 | 25.22559 | -77.74716 | 13108 ft | 361 kts | 289° |
| 2026-05-07 15:53 | 25.23380 | -77.77399 | 13794 ft | 367 kts | 289° |
| 2026-05-07 15:53 | 25.24191 | -77.80053 | 14475 ft | 371 kts | 289° |
| 2026-05-07 15:53 | 25.25021 | -77.82766 | 15214 ft | 374 kts | 289° |
| 2026-05-07 15:53 | 25.25867 | -77.85539 | 15919 ft | 377 kts | 290° |
| 2026-05-07 15:54 | 25.26697 | -77.88262 | 16595 ft | 380 kts | 290° |
| 2026-05-07 15:54 | 25.27544 | -77.91042 | 17245 ft | 383 kts | 290° |
| 2026-05-07 15:54 | 25.28408 | -77.93878 | 17879 ft | 386 kts | 290° |
| 2026-05-07 15:54 | 25.29253 | -77.96658 | 18477 ft | 388 kts | 290° |
| 2026-05-07 15:55 | 25.30116 | -77.99496 | 19062 ft | 391 kts | 290° |
| 2026-05-07 15:55 | 25.30984 | -78.02357 | 19632 ft | 394 kts | 290° |
| 2026-05-07 15:55 | 25.31858 | -78.05235 | 20169 ft | 397 kts | 290° |
| 2026-05-07 15:55 | 25.32739 | -78.08140 | 20691 ft | 400 kts | 290° |
| 2026-05-07 15:56 | 25.33627 | -78.11073 | 21207 ft | 403 kts | 289° |
| 2026-05-07 15:56 | 25.34517 | -78.14013 | 21716 ft | 405 kts | 289° |
| 2026-05-07 15:56 | 25.35414 | -78.16979 | 22195 ft | 407 kts | 289° |
| 2026-05-07 15:56 | 25.36313 | -78.19952 | 22675 ft | 410 kts | 289° |
| 2026-05-07 15:57 | 25.37218 | -78.22948 | 23116 ft | 412 kts | 289° |
| 2026-05-07 15:57 | 25.38129 | -78.25968 | 23563 ft | 415 kts | 289° |
| 2026-05-07 15:57 | 25.39045 | -78.29006 | 23968 ft | 418 kts | 289° |
| 2026-05-07 15:57 | 25.39972 | -78.32080 | 24091 ft | 424 kts | 289° |
| 2026-05-07 15:58 | 25.40915 | -78.35206 | 24098 ft | 432 kts | 289° |
| 2026-05-07 15:58 | 25.41872 | -78.38383 | 24096 ft | 439 kts | 289° |
| 2026-05-07 15:58 | 25.42843 | -78.41606 | 24096 ft | 445 kts | 289° |
| 2026-05-07 15:58 | 25.43827 | -78.44877 | 24100 ft | 450 kts | 289° |
| 2026-05-07 15:59 | 25.44818 | -78.48177 | 24097 ft | 455 kts | 289° |
| 2026-05-07 15:59 | 25.45819 | -78.51516 | 24103 ft | 459 kts | 289° |
| 2026-05-07 15:59 | 25.46827 | -78.54881 | 24099 ft | 461 kts | 289° |
| 2026-05-07 15:59 | 25.47836 | -78.58257 | 24108 ft | 461 kts | 289° |
| 2026-05-07 16:00 | 25.48841 | -78.61623 | 24109 ft | 461 kts | 289° |
| 2026-05-07 16:00 | 25.49849 | -78.64999 | 24109 ft | 461 kts | 289° |
| 2026-05-07 16:00 | 25.50854 | -78.68371 | 24110 ft | 462 kts | 289° |
| 2026-05-07 16:00 | 25.51860 | -78.71750 | 24110 ft | 462 kts | 289° |
| 2026-05-07 16:01 | 25.52862 | -78.75119 | 24110 ft | 462 kts | 289° |
| 2026-05-07 16:01 | 25.53866 | -78.78496 | 24109 ft | 462 kts | 289° |
| 2026-05-07 16:01 | 25.54856 | -78.81830 | 24110 ft | 462 kts | 289° |
| 2026-05-07 16:01 | 25.55859 | -78.85213 | 24109 ft | 462 kts | 289° |
| 2026-05-07 16:02 | 25.56862 | -78.88595 | 24109 ft | 462 kts | 289° |
| 2026-05-07 16:02 | 25.57863 | -78.91979 | 24110 ft | 462 kts | 289° |
| 2026-05-07 16:02 | 25.58864 | -78.95362 | 24104 ft | 462 kts | 289° |
| 2026-05-07 16:02 | 25.59863 | -78.98740 | 24101 ft | 462 kts | 289° |
| 2026-05-07 16:03 | 25.60860 | -79.02118 | 24102 ft | 462 kts | 289° |
| 2026-05-07 16:03 | 25.61859 | -79.05506 | 24102 ft | 462 kts | 289° |
| 2026-05-07 16:03 | 25.62534 | -79.07795 | 24099 ft | 463 kts | 289° |
| 2026-05-07 16:03 | 25.63532 | -79.11182 | 24103 ft | 463 kts | 289° |
| 2026-05-07 16:04 | 25.64515 | -79.14525 | 24102 ft | 463 kts | 289° |
| 2026-05-07 16:04 | 25.65525 | -79.17960 | 24100 ft | 463 kts | 288° |
| 2026-05-07 16:04 | 25.66507 | -79.21306 | 24101 ft | 463 kts | 288° |
| 2026-05-07 16:04 | 25.67502 | -79.24697 | 24098 ft | 462 kts | 288° |
| 2026-05-07 16:05 | 25.68493 | -79.28078 | 24100 ft | 462 kts | 288° |
| 2026-05-07 16:05 | 25.69487 | -79.31470 | 24100 ft | 462 kts | 288° |
| 2026-05-07 16:05 | 25.70473 | -79.34843 | 24102 ft | 458 kts | 288° |
| 2026-05-07 16:05 | 25.71454 | -79.38201 | 24093 ft | 457 kts | 288° |
| 2026-05-07 16:06 | 25.72431 | -79.41549 | 24091 ft | 456 kts | 288° |
| 2026-05-07 16:06 | 25.73409 | -79.44901 | 24091 ft | 456 kts | 288° |
| 2026-05-07 16:06 | 25.74383 | -79.48244 | 24096 ft | 456 kts | 288° |
| 2026-05-07 16:06 | 25.75359 | -79.51591 | 23035 ft | 461 kts | 288° |
| 2026-05-07 16:07 | 25.76339 | -79.54958 | 22339 ft | 457 kts | 288° |
| 2026-05-07 16:07 | 25.77307 | -79.58290 | 21727 ft | 450 kts | 288° |
| 2026-05-07 16:07 | 25.78258 | -79.61567 | 21143 ft | 443 kts | 288° |
| 2026-05-07 16:07 | 25.79195 | -79.64797 | 20550 ft | 437 kts | 288° |
| 2026-05-07 16:08 | 25.80119 | -79.67989 | 19910 ft | 433 kts | 288° |
| 2026-05-07 16:08 | 25.81035 | -79.71152 | 19301 ft | 428 kts | 288° |
| 2026-05-07 16:08 | 25.81939 | -79.74276 | 18709 ft | 423 kts | 288° |
| 2026-05-07 16:08 | 25.82838 | -79.77386 | 18044 ft | 421 kts | 288° |
| 2026-05-07 16:09 | 25.83725 | -79.80460 | 17452 ft | 417 kts | 288° |
| 2026-05-07 16:09 | 25.84605 | -79.83509 | 16804 ft | 414 kts | 288° |
| 2026-05-07 16:09 | 25.85479 | -79.86541 | 16162 ft | 412 kts | 288° |
| 2026-05-07 16:09 | 25.86348 | -79.89557 | 15565 ft | 409 kts | 288° |
| 2026-05-07 16:10 | 25.87202 | -79.92525 | 15001 ft | 406 kts | 288° |
| 2026-05-07 16:10 | 25.88065 | -79.95527 | 14525 ft | 400 kts | 288° |
| 2026-05-07 16:10 | 25.88896 | -79.98420 | 14066 ft | 395 kts | 288° |
| 2026-05-07 16:10 | 25.89726 | -80.01311 | 13637 ft | 390 kts | 288° |
| 2026-05-07 16:11 | 25.90543 | -80.04161 | 13318 ft | 382 kts | 287° |
| 2026-05-07 16:11 | 25.90939 | -80.07024 | 13066 ft | 372 kts | 266° |
| 2026-05-07 16:11 | 25.90311 | -80.09747 | 12919 ft | 360 kts | 243° |
| 2026-05-07 16:11 | 25.88835 | -80.11904 | 12794 ft | 347 kts | 221° |
| 2026-05-07 16:12 | 25.86870 | -80.13365 | 12687 ft | 335 kts | 207° |
| 2026-05-07 16:12 | 25.84829 | -80.14527 | 12562 ft | 325 kts | 207° |
| 2026-05-07 16:12 | 25.82847 | -80.15664 | 12437 ft | 315 kts | 207° |
| 2026-05-07 16:12 | 25.80930 | -80.16767 | 12304 ft | 305 kts | 207° |
| 2026-05-07 16:13 | 25.79071 | -80.17838 | 12176 ft | 297 kts | 207° |
| 2026-05-07 16:13 | 25.77248 | -80.18889 | 11855 ft | 295 kts | 207° |
| 2026-05-07 16:13 | 25.75434 | -80.19934 | 11545 ft | 293 kts | 207° |
| 2026-05-07 16:13 | 25.73691 | -80.21085 | 11195 ft | 292 kts | 221° |
| 2026-05-07 16:14 | 25.72469 | -80.22850 | 10879 ft | 290 kts | 246° |
| 2026-05-07 16:14 | 25.71886 | -80.24974 | 10519 ft | 289 kts | 256° |
| 2026-05-07 16:14 | 25.71406 | -80.27141 | 10178 ft | 288 kts | 257° |
| 2026-05-07 16:14 | 25.71172 | -80.29337 | 9879 ft | 286 kts | 267° |
| 2026-05-07 16:15 | 25.71072 | -80.31538 | 9521 ft | 285 kts | 267° |
| 2026-05-07 16:15 | 25.70969 | -80.33734 | 9215 ft | 284 kts | 267° |
| 2026-05-07 16:15 | 25.70866 | -80.35909 | 8914 ft | 282 kts | 267° |
| 2026-05-07 16:15 | 25.70763 | -80.38081 | 8583 ft | 281 kts | 267° |
| 2026-05-07 16:16 | 25.70662 | -80.40212 | 8283 ft | 279 kts | 267° |
| 2026-05-07 16:16 | 25.70557 | -80.42387 | 7978 ft | 278 kts | 267° |
| 2026-05-07 16:16 | 25.70441 | -80.44490 | 7685 ft | 276 kts | 265° |
| 2026-05-07 16:16 | 25.70296 | -80.46609 | 7364 ft | 276 kts | 265° |
| 2026-05-07 16:17 | 25.70151 | -80.48747 | 6916 ft | 281 kts | 265° |
| 2026-05-07 16:17 | 25.70005 | -80.50919 | 6466 ft | 283 kts | 265° |
| 2026-05-07 16:17 | 25.69863 | -80.53071 | 5996 ft | 277 kts | 265° |
| 2026-05-07 16:17 | 25.69724 | -80.55217 | 5544 ft | 273 kts | 265° |
| 2026-05-07 16:18 | 25.69593 | -80.57274 | 5092 ft | 269 kts | 265° |
| 2026-05-07 16:18 | 25.69464 | -80.59297 | 4882 ft | 256 kts | 265° |
| 2026-05-07 16:18 | 25.69345 | -80.61203 | 4777 ft | 238 kts | 265° |
| 2026-05-07 16:18 | 25.69238 | -80.62948 | 4614 ft | 220 kts | 265° |
| 2026-05-07 16:19 | 25.69297 | -80.64620 | 4288 ft | 217 kts | 287° |
| 2026-05-07 16:19 | 25.70114 | -80.65994 | 3931 ft | 216 kts | 321° |
| 2026-05-07 16:19 | 25.71477 | -80.66610 | 3632 ft | 214 kts | 356° |
| 2026-05-07 16:19 | 25.72906 | -80.66238 | 3495 ft | 214 kts | 32° |
| 2026-05-07 16:20 | 25.73887 | -80.65033 | 3415 ft | 214 kts | 65° |
| 2026-05-07 16:20 | 25.74379 | -80.63473 | 3406 ft | 215 kts | 74° |
| 2026-05-07 16:20 | 25.74809 | -80.61883 | 3387 ft | 215 kts | 74° |
| 2026-05-07 16:20 | 25.75239 | -80.60291 | 3346 ft | 215 kts | 74° |
| 2026-05-07 16:21 | 25.75658 | -80.58704 | 3264 ft | 214 kts | 75° |
| 2026-05-07 16:21 | 25.76039 | -80.57109 | 3194 ft | 214 kts | 76° |
| 2026-05-07 16:21 | 25.76418 | -80.55512 | 3131 ft | 214 kts | 76° |
| 2026-05-07 16:21 | 25.76797 | -80.53913 | 3059 ft | 213 kts | 76° |
| 2026-05-07 16:22 | 25.77175 | -80.52321 | 3016 ft | 213 kts | 76° |
| 2026-05-07 16:22 | 25.77554 | -80.50728 | 3013 ft | 214 kts | 75° |
| 2026-05-07 16:22 | 25.77852 | -80.49112 | 3004 ft | 213 kts | 83° |
| 2026-05-07 16:22 | 25.77959 | -80.47472 | 2848 ft | 213 kts | 88° |
| 2026-05-07 16:23 | 25.78015 | -80.45831 | 2588 ft | 212 kts | 88° |
| 2026-05-07 16:23 | 25.78079 | -80.44250 | 2316 ft | 197 kts | 88° |
| 2026-05-07 16:23 | 25.78141 | -80.42798 | 2073 ft | 181 kts | 88° |
| 2026-05-07 16:23 | 25.78194 | -80.41468 | 1876 ft | 163 kts | 89° |
| 2026-05-07 16:24 | 25.78245 | -80.40257 | 1723 ft | 154 kts | 88° |
| 2026-05-07 16:24 | 25.78295 | -80.39089 | 1456 ft | 149 kts | 88° |
| 2026-05-07 16:24 | 25.78341 | -80.37941 | 1249 ft | 148 kts | 88° |
| 2026-05-07 16:24 | 25.78388 | -80.36804 | 1053 ft | 148 kts | 88° |
| 2026-05-07 16:25 | 25.78436 | -80.35665 | 861 ft | 147 kts | 88° |
| 2026-05-07 16:25 | 25.78482 | -80.34536 | 661 ft | 147 kts | 88° |
| 2026-05-07 16:25 | 25.78527 | -80.33407 | 482 ft | 146 kts | 88° |
| 2026-05-07 16:25 | 25.78585 | -80.32276 | 285 ft | 147 kts | 88° |
| 2026-05-07 16:26 | 25.78622 | -80.31148 | 92 ft | 146 kts | 88° |
| 2026-05-07 16:26 | 25.78666 | -80.30035 | 40 ft | 139 kts | 88° |
| 2026-05-07 16:26 | 25.78706 | -80.29097 | 24 ft | 99 kts | 87° |
| 2026-05-07 16:26 | 25.78733 | -80.28510 | 23 ft | 48 kts | 88° |
| 2026-05-07 16:27 | 25.78744 | -80.28225 | 25 ft | 39 kts | 88° |
| 2026-05-07 16:27 | 25.78747 | -80.28142 | 24 ft | 2 kts | 86° |
| 2026-05-07 16:27 | 25.78750 | -80.28106 | 26 ft | 12 kts | 86° |
| 2026-05-07 16:27 | 25.78758 | -80.27965 | 27 ft | 24 kts | 86° |
| 2026-05-07 16:28 | 25.78771 | -80.27750 | 27 ft | 31 kts | 86° |
| 2026-05-07 16:28 | 25.78825 | -80.27568 | 26 ft | 21 kts | 24° |
| 2026-05-07 16:28 | 25.78966 | -80.27553 | 24 ft | 12 kts | 1° |
| 2026-05-07 16:28 | 25.79049 | -80.27554 | 25 ft | 11 kts | 348° |
| 2026-05-07 16:29 | 25.79076 | -80.27598 | 24 ft | 7 kts | 271° |
| 2026-05-07 16:29 | 25.79076 | -80.27614 | 27 ft | 0 kts | 268° |